Time;durP1;ratioP1;P1;durP2;ratioP2;P2;SDS_P1;SDS_P2;PMS_P1;PMS_P2;Temp;Humidity;BMP_temperature;BMP_pressure;BME280_temperature;BME280_humidity;BME280_pressure;Samples;Min_cycle;Max_cycle;Signal;HPM_P1;HPM_P2
2022/10/09 00:01:11;;;;;;;4.43;1.87;;;5.50;99.90;;;;;;5107606;28;20632;-83
2022/10/09 00:03:38;;;;;;;3.87;1.93;;;5.50;99.90;;;;;;5096495;28;20212;-83
2022/10/09 00:06:05;;;;;;;7.50;2.23;;;5.50;99.90;;;;;;5085721;28;20199;-84
2022/10/09 00:08:32;;;;;;;7.20;2.57;;;5.50;99.90;;;;;;5082645;28;20181;-84
2022/10/09 00:10:58;;;;;;;10.03;2.30;;;5.40;99.90;;;;;;5082991;28;20194;-83
2022/10/09 00:13:23;;;;;;;5.07;2.13;;;5.40;99.90;;;;;;5087354;28;20178;-83
2022/10/09 00:15:49;;;;;;;5.67;2.27;;;5.40;99.90;;;;;;5102842;28;20210;-83
2022/10/09 00:18:17;;;;;;;3.00;2.20;;;5.30;99.90;;;;;;5102888;28;20173;-83
2022/10/09 00:20:45;;;;;;;3.83;1.97;;;5.30;99.90;;;;;;5103376;28;20175;-83
2022/10/09 00:23:13;;;;;;;3.07;1.73;;;5.30;99.90;;;;;;5101440;28;20178;-83
2022/10/09 00:25:48;;;;;;;5.13;2.10;;;5.30;99.90;;;;;;5106708;28;20205;-83
2022/10/09 00:28:13;;;;;;;5.77;2.13;;;5.20;99.90;;;;;;5110388;28;20165;-83
2022/10/09 00:30:39;;;;;;;3.10;2.13;;;5.20;99.90;;;;;;5109039;28;20170;-83
2022/10/09 00:33:04;;;;;;;6.13;2.10;;;5.20;99.90;;;;;;5110893;28;20575;-84
2022/10/09 00:35:30;;;;;;;10.03;2.33;;;5.20;99.90;;;;;;5109985;28;20255;-84
2022/10/09 00:37:56;;;;;;;3.53;2.20;;;5.20;99.90;;;;;;5111329;28;20178;-83
2022/10/09 00:40:22;;;;;;;3.00;1.97;;;5.10;99.90;;;;;;5108803;28;20543;-83
2022/10/09 00:42:55;;;;;;;3.30;1.93;;;5.10;99.90;;;;;;5106455;28;20174;-83
2022/10/09 00:45:21;;;;;;;5.83;2.17;;;5.10;99.90;;;;;;5087034;28;20254;-83
2022/10/09 00:47:54;;;;;;;2.67;1.80;;;5.00;99.90;;;;;;5084486;28;20179;-83
2022/10/09 00:50:37;;;;;;;4.87;2.33;;;5.00;99.90;;;;;;5087477;28;20175;-83
2022/10/09 00:53:03;;;;;;;4.30;2.30;;;5.00;99.90;;;;;;5087501;28;20151;-83
2022/10/09 00:55:29;;;;;;;4.93;2.37;;;5.00;99.90;;;;;;5104638;28;20266;-83
2022/10/09 00:57:58;;;;;;;5.17;2.20;;;5.00;99.90;;;;;;5105985;28;20178;-83
2022/10/09 01:00:25;;;;;;;6.73;2.33;;;5.00;99.90;;;;;;5104801;28;20220;-83
2022/10/09 01:02:50;;;;;;;5.10;2.03;;;5.00;99.90;;;;;;5104305;28;20532;-84
2022/10/09 01:05:16;;;;;;;3.23;2.00;;;5.00;99.90;;;;;;5105394;28;20289;-83
2022/10/09 01:07:44;;;;;;;3.70;2.17;;;5.00;99.90;;;;;;5104836;28;20266;-83
2022/10/09 01:10:20;;;;;;;4.33;2.13;;;5.00;99.90;;;;;;5103378;28;20556;-83
2022/10/09 01:13:23;;;;;;;5.97;2.57;;;4.90;99.90;;;;;;5104784;28;20582;-83
2022/10/09 01:15:53;;;;;;;5.40;1.97;;;4.90;99.90;;;;;;5104999;28;20546;-83
2022/10/09 01:18:31;;;;;;;3.10;1.70;;;4.90;99.90;;;;;;5104551;28;20195;-83
2022/10/09 01:21:06;;;;;;;9.23;2.00;;;4.80;99.90;;;;;;5105912;28;20177;-83
2022/10/09 01:23:46;;;;;;;6.33;2.13;;;4.80;99.90;;;;;;5103389;28;20177;-82
2022/10/09 01:26:29;;;;;;;4.53;2.47;;;4.80;99.90;;;;;;5105833;28;20272;-83
2022/10/09 01:28:59;;;;;;;3.80;2.30;;;4.80;99.90;;;;;;5106715;28;20154;-83
2022/10/09 01:31:29;;;;;;;5.57;2.40;;;4.90;99.90;;;;;;5105157;28;20166;-83
2022/10/09 01:33:55;;;;;;;5.97;2.67;;;4.80;99.90;;;;;;5104047;28;20205;-83
2022/10/09 01:36:22;;;;;;;5.63;2.10;;;4.80;99.90;;;;;;5102905;28;20202;-83
2022/10/09 01:38:49;;;;;;;7.73;2.50;;;4.80;99.90;;;;;;5103617;28;20710;-83
2022/10/09 01:44:36;;;;;;;6.43;2.47;;;4.70;99.90;;;;;;5102765;28;20208;-83
2022/10/09 01:47:04;;;;;;;4.67;2.40;;;4.80;99.90;;;;;;5105079;28;20670;-82
2022/10/09 01:49:46;;;;;;;3.73;2.17;;;4.70;99.90;;;;;;5105009;28;20201;-83
2022/10/09 01:52:31;;;;;;;5.80;2.23;;;4.70;99.90;;;;;;5102210;28;20166;-82
2022/10/09 01:55:16;;;;;;;7.70;2.30;;;4.60;99.90;;;;;;5103520;28;20202;-83
2022/10/09 01:57:55;;;;;;;6.07;2.33;;;4.60;99.90;;;;;;5102061;28;20212;-83
2022/10/09 02:00:21;;;;;;;4.63;2.40;;;4.60;99.90;;;;;;5103223;28;20189;-83
2022/10/09 02:02:48;;;;;;;4.63;1.97;;;4.50;99.90;;;;;;5101555;28;20170;-83
2022/10/09 02:05:20;;;;;;;4.40;2.63;;;4.50;99.90;;;;;;5102107;28;20590;-83
2022/10/09 02:07:46;;;;;;;5.87;2.63;;;4.50;99.90;;;;;;5100555;28;20659;-83
2022/10/09 02:10:14;;;;;;;5.87;2.70;;;4.40;99.90;;;;;;5102664;28;20181;-83
2022/10/09 02:12:45;;;;;;;3.17;2.17;;;4.50;99.90;;;;;;5101344;28;20192;-82
2022/10/09 02:15:11;;;;;;;4.13;2.40;;;4.40;99.90;;;;;;5099863;28;20198;-83
2022/10/09 02:17:42;;;;;;;5.03;2.23;;;4.40;99.90;;;;;;5101357;28;20213;-83
2022/10/09 02:20:17;;;;;;;5.73;1.90;;;4.40;99.90;;;;;;5100469;28;20174;-83
2022/10/09 02:22:43;;;;;;;6.27;2.30;;;4.40;99.90;;;;;;5102685;28;20508;-83
2022/10/09 02:25:08;;;;;;;4.40;2.23;;;4.30;99.90;;;;;;5100974;28;20197;-83
2022/10/09 02:27:35;;;;;;;3.60;2.33;;;4.30;99.90;;;;;;5099520;28;20562;-83
2022/10/09 02:30:01;;;;;;;3.57;2.10;;;4.30;99.90;;;;;;5100319;28;20182;-83
2022/10/09 02:32:27;;;;;;;3.47;2.33;;;4.30;99.90;;;;;;5102808;28;20189;-83
2022/10/09 02:34:53;;;;;;;3.40;2.13;;;4.30;99.90;;;;;;5103231;28;20210;-83
2022/10/09 02:37:18;;;;;;;7.70;2.87;;;4.30;99.90;;;;;;5100211;28;20210;-83
2022/10/09 02:39:44;;;;;;;4.27;2.30;;;4.30;99.90;;;;;;5100071;28;20275;-83
2022/10/09 02:42:10;;;;;;;3.13;1.87;;;4.30;99.90;;;;;;5099703;28;20201;-83
2022/10/09 02:44:35;;;;;;;5.20;2.33;;;4.30;99.90;;;;;;5099048;28;20701;-83
2022/10/09 02:47:01;;;;;;;3.47;1.90;;;4.30;99.90;;;;;;5102108;28;20531;-83
2022/10/09 02:49:26;;;;;;;6.73;2.83;;;4.20;99.90;;;;;;5100559;28;20261;-83
2022/10/09 02:51:52;;;;;;;3.00;2.07;;;4.20;99.90;;;;;;5100598;28;20238;-83
2022/10/09 02:54:18;;;;;;;4.57;2.37;;;4.20;99.90;;;;;;5099818;28;20688;-83
2022/10/09 02:56:43;;;;;;;3.97;2.07;;;4.20;99.90;;;;;;5099336;28;20198;-83
2022/10/09 02:59:09;;;;;;;7.63;2.20;;;4.20;99.90;;;;;;5099356;28;20170;-83
2022/10/09 03:01:34;;;;;;;4.77;2.30;;;4.10;99.90;;;;;;5102252;28;20192;-83
2022/10/09 03:04:00;;;;;;;4.80;2.07;;;4.10;99.90;;;;;;5102491;28;20166;-82
2022/10/09 03:06:27;;;;;;;5.67;2.40;;;4.00;99.90;;;;;;5098394;28;20210;-83
2022/10/09 03:08:53;;;;;;;3.57;2.10;;;4.00;99.90;;;;;;5102185;28;20670;-83
2022/10/09 03:11:21;;;;;;;7.13;2.07;;;3.90;99.90;;;;;;5101956;28;20166;-83
2022/10/09 03:13:48;;;;;;;5.77;2.50;;;3.90;99.90;;;;;;5102126;28;20177;-83
2022/10/09 03:16:17;;;;;;;5.00;2.10;;;3.90;99.90;;;;;;5099912;28;20206;-83
2022/10/09 03:18:43;;;;;;;7.43;2.67;;;3.90;99.90;;;;;;5101946;28;20209;-82
2022/10/09 03:21:11;;;;;;;5.63;2.40;;;3.90;99.90;;;;;;5100247;28;20185;-83
2022/10/09 03:23:37;;;;;;;4.97;2.73;;;3.90;99.90;;;;;;5099530;28;20182;-83
2022/10/09 03:26:06;;;;;;;3.70;2.10;;;3.90;99.90;;;;;;5100263;28;20687;-83
2022/10/09 03:28:35;;;;;;;5.30;2.20;;;3.80;99.90;;;;;;5101337;28;20185;-83
2022/10/09 03:31:00;;;;;;;8.50;2.63;;;3.80;99.90;;;;;;5099579;28;20209;-83
2022/10/09 03:33:26;;;;;;;3.47;2.07;;;3.80;99.90;;;;;;5098599;28;20186;-83
2022/10/09 03:35:52;;;;;;;7.53;2.63;;;3.80;99.90;;;;;;5101655;28;20217;-82
2022/10/09 03:38:17;;;;;;;6.10;2.40;;;3.80;99.90;;;;;;5102065;28;20178;-83
2022/10/09 03:40:44;;;;;;;9.20;2.20;;;3.80;99.90;;;;;;5101582;28;20170;-83
2022/10/09 03:43:09;;;;;;;7.23;2.07;;;3.80;99.90;;;;;;5099940;28;20177;-83
2022/10/09 03:45:38;;;;;;;7.30;2.07;;;3.70;99.90;;;;;;5099280;28;20280;-83
2022/10/09 03:48:03;;;;;;;3.93;1.87;;;3.70;99.90;;;;;;5098205;28;20174;-83
2022/10/09 03:50:29;;;;;;;4.70;2.03;;;3.70;99.90;;;;;;5096953;28;20204;-83
2022/10/09 03:52:54;;;;;;;3.80;2.53;;;3.70;99.90;;;;;;5097482;28;20193;-82
2022/10/09 03:55:20;;;;;;;2.77;1.73;;;3.70;99.90;;;;;;5099042;28;20534;-82
2022/10/09 03:57:45;;;;;;;3.60;2.00;;;3.60;99.90;;;;;;5096962;28;20237;-83
2022/10/09 04:00:11;;;;;;;3.53;2.23;;;3.60;99.90;;;;;;5097192;28;20174;-82
2022/10/09 04:02:37;;;;;;;5.47;2.40;;;3.60;99.90;;;;;;5101502;28;20167;-82
2022/10/09 04:05:03;;;;;;;3.40;2.13;;;3.50;99.90;;;;;;5098613;28;20210;-83
2022/10/09 04:07:28;;;;;;;7.20;2.40;;;3.50;99.90;;;;;;5099060;28;20166;-83
2022/10/09 04:09:54;;;;;;;3.63;2.10;;;3.50;99.90;;;;;;5099265;28;20589;-83
2022/10/09 04:12:20;;;;;;;6.57;2.10;;;3.50;99.90;;;;;;5103436;28;20581;-83
2022/10/09 04:14:45;;;;;;;4.67;2.07;;;3.50;99.90;;;;;;5104867;28;20194;-83
2022/10/09 04:17:11;;;;;;;3.43;2.20;;;3.40;99.90;;;;;;5106042;28;20632;-83
2022/10/09 04:19:36;;;;;;;3.83;2.13;;;3.40;99.90;;;;;;5103895;28;20178;-83
2022/10/09 04:22:02;;;;;;;5.87;2.07;;;3.40;99.90;;;;;;5102661;28;20174;-83
2022/10/09 04:24:28;;;;;;;3.87;1.90;;;3.40;99.90;;;;;;5102459;28;20226;-82
2022/10/09 04:26:54;;;;;;;4.60;2.20;;;3.40;99.90;;;;;;5104862;28;20705;-83
2022/10/09 04:29:19;;;;;;;3.83;1.90;;;3.40;99.90;;;;;;5102101;28;20718;-82
2022/10/09 04:31:45;;;;;;;4.00;2.40;;;3.40;99.90;;;;;;5102315;28;20194;-82
2022/10/09 04:34:10;;;;;;;5.07;2.40;;;3.40;99.90;;;;;;5104693;28;20205;-82
2022/10/09 04:36:36;;;;;;;5.13;2.33;;;3.40;99.90;;;;;;5103571;28;20202;-83
2022/10/09 04:39:02;;;;;;;3.33;1.80;;;3.30;99.90;;;;;;5104150;28;20170;-83
2022/10/09 04:41:27;;;;;;;4.80;2.47;;;3.30;99.90;;;;;;5104172;28;20174;-83
2022/10/09 04:43:54;;;;;;;3.37;2.00;;;3.30;99.90;;;;;;5101492;28;20185;-84
2022/10/09 04:46:20;;;;;;;4.00;2.13;;;3.30;99.90;;;;;;5102076;28;20194;-83
2022/10/09 04:48:47;;;;;;;3.67;2.30;;;3.20;99.90;;;;;;5102148;28;20554;-82
2022/10/09 04:51:13;;;;;;;2.50;2.00;;;3.30;99.90;;;;;;5104215;28;20174;-83
2022/10/09 04:53:39;;;;;;;3.17;2.30;;;3.30;99.90;;;;;;5102642;28;20566;-82
2022/10/09 04:56:14;;;;;;;4.77;2.43;;;3.20;99.90;;;;;;5102843;28;20399;-83
2022/10/09 04:58:40;;;;;;;6.00;2.53;;;3.30;99.90;;;;;;5103826;28;20196;-82
2022/10/09 05:01:07;;;;;;;5.20;2.63;;;3.20;99.90;;;;;;5100538;28;20246;-82
2022/10/09 05:03:33;;;;;;;4.90;2.13;;;3.30;99.90;;;;;;5103759;28;20175;-83
2022/10/09 05:06:03;;;;;;;4.87;2.30;;;3.20;99.90;;;;;;5102859;28;20269;-82
2022/10/09 05:08:30;;;;;;;5.57;2.23;;;3.20;99.90;;;;;;5103001;28;20324;-82
2022/10/09 05:11:00;;;;;;;3.77;2.20;;;3.20;99.90;;;;;;5102514;28;20183;-82
2022/10/09 05:13:28;;;;;;;5.10;2.47;;;3.20;99.90;;;;;;5102134;28;20656;-83
2022/10/09 05:15:54;;;;;;;5.57;2.30;;;3.20;99.90;;;;;;5103031;28;20190;-83
2022/10/09 05:18:19;;;;;;;4.77;2.53;;;3.30;99.90;;;;;;5102246;28;20174;-83
2022/10/09 05:20:45;;;;;;;3.97;2.20;;;3.30;99.90;;;;;;5104290;28;20193;-83
2022/10/09 05:23:10;;;;;;;3.20;2.37;;;3.30;99.90;;;;;;5102059;28;20207;-83
2022/10/09 05:25:36;;;;;;;4.83;2.73;;;3.30;99.90;;;;;;5103207;28;20568;-83
2022/10/09 05:28:01;;;;;;;4.97;2.13;;;3.30;99.90;;;;;;5104929;28;20177;-83
2022/10/09 05:30:27;;;;;;;5.87;2.57;;;3.20;99.90;;;;;;5103906;28;20178;-83
2022/10/09 05:32:52;;;;;;;4.53;2.23;;;3.20;99.90;;;;;;5105355;28;20178;-83
2022/10/09 05:35:18;;;;;;;3.10;2.30;;;3.20;99.90;;;;;;5102740;28;20278;-83
2022/10/09 05:37:44;;;;;;;3.53;2.23;;;3.20;99.90;;;;;;5119232;22;20222;-77
2022/10/09 05:40:10;;;;;;;6.47;2.20;;;3.20;99.90;;;;;;5106587;28;20171;-77
2022/10/09 05:42:35;;;;;;;4.63;2.30;;;3.20;99.90;;;;;;5106428;28;20178;-77
2022/10/09 05:45:01;;;;;;;2.70;2.17;;;3.30;99.90;;;;;;5096706;28;20183;-76
2022/10/09 05:47:29;;;;;;;2.67;2.00;;;3.20;99.90;;;;;;5087709;28;20258;-77
2022/10/09 05:49:55;;;;;;;3.90;2.33;;;3.20;99.90;;;;;;5088714;28;20261;-77
2022/10/09 05:52:20;;;;;;;3.80;2.30;;;3.20;99.90;;;;;;5100681;28;20190;-80
2022/10/09 05:54:46;;;;;;;5.17;2.23;;;3.30;99.90;;;;;;5104137;28;20237;-85
2022/10/09 05:57:11;;;;;;;1.93;1.70;;;3.20;99.90;;;;;;5102260;28;20297;-82
2022/10/09 05:59:37;;;;;;;5.40;2.67;;;3.20;99.90;;;;;;5101778;28;20175;-84
2022/10/09 06:02:03;;;;;;;4.27;2.33;;;3.20;99.90;;;;;;5098888;28;20208;-83
2022/10/09 06:04:28;;;;;;;2.97;2.20;;;3.20;99.90;;;;;;5100230;28;20232;-83
2022/10/09 06:06:54;;;;;;;2.70;1.97;;;3.20;99.90;;;;;;5099983;28;20198;-84
2022/10/09 06:09:22;;;;;;;4.13;2.33;;;3.20;99.90;;;;;;5099092;28;20185;-81
2022/10/09 06:11:49;;;;;;;3.50;2.13;;;3.20;99.90;;;;;;5097227;28;20648;-81
2022/10/09 06:14:15;;;;;;;8.93;2.40;;;3.30;99.90;;;;;;5098062;28;20661;-79
2022/10/09 06:16:42;;;;;;;2.53;2.00;;;3.20;99.90;;;;;;5097608;28;20292;-79
2022/10/09 06:19:13;;;;;;;4.83;2.17;;;3.20;99.90;;;;;;5097675;28;20196;-80
2022/10/09 06:21:39;;;;;;;3.63;1.97;;;3.20;99.90;;;;;;5095789;28;20189;-79
2022/10/09 06:24:05;;;;;;;4.53;2.70;;;3.20;99.90;;;;;;5097658;28;20177;-79
2022/10/09 06:26:32;;;;;;;5.73;2.53;;;3.20;99.90;;;;;;5097428;28;20210;-79
2022/10/09 06:28:59;;;;;;;5.40;2.60;;;3.20;99.90;;;;;;5095658;28;20552;-79
2022/10/09 06:31:28;;;;;;;2.93;2.20;;;3.20;99.90;;;;;;5095205;28;20198;-80
2022/10/09 06:33:54;;;;;;;8.80;2.37;;;3.20;99.90;;;;;;5095307;28;20178;-80
2022/10/09 06:36:22;;;;;;;3.10;2.10;;;3.20;99.90;;;;;;5096279;28;20198;-80
2022/10/09 06:38:48;;;;;;;5.53;2.63;;;3.30;99.90;;;;;;5097819;28;20577;-79
2022/10/09 06:41:20;;;;;;;7.40;2.50;;;3.30;99.90;;;;;;5095133;28;20648;-80
2022/10/09 06:43:53;;;;;;;4.97;1.97;;;3.30;99.90;;;;;;5097603;28;20532;-79
2022/10/09 06:46:19;;;;;;;4.73;2.70;;;3.30;99.90;;;;;;5096942;28;20174;-79
2022/10/09 06:48:45;;;;;;;3.03;2.13;;;3.30;99.90;;;;;;5095219;28;20212;-79
2022/10/09 06:51:13;;;;;;;5.23;2.73;;;3.30;99.90;;;;;;5096337;28;20175;-80
2022/10/09 06:53:42;;;;;;;5.60;2.40;;;3.30;99.90;;;;;;5095719;28;20187;-79
2022/10/09 06:56:09;;;;;;;4.63;2.60;;;3.40;99.90;;;;;;5097513;28;20261;-81
2022/10/09 06:58:35;;;;;;;4.20;2.50;;;3.40;99.90;;;;;;5095238;28;20174;-78
2022/10/09 07:01:15;;;;;;;3.07;2.03;;;3.50;99.90;;;;;;5094448;28;20235;-79
2022/10/09 07:03:43;;;;;;;4.00;2.53;;;3.50;99.90;;;;;;5096440;28;20166;-78
2022/10/09 07:06:17;;;;;;;5.27;2.37;;;3.60;99.90;;;;;;5095886;28;20202;-79
2022/10/09 07:08:44;;;;;;;3.30;2.23;;;3.60;99.90;;;;;;5095717;28;20204;-78
2022/10/09 07:11:22;;;;;;;6.60;2.10;;;3.60;99.90;;;;;;5094871;28;20178;-79
2022/10/09 07:13:50;;;;;;;5.30;2.43;;;3.70;99.90;;;;;;5098834;28;20203;-79
2022/10/09 07:16:22;;;;;;;4.50;2.57;;;3.80;99.90;;;;;;5097799;28;20205;-79
2022/10/09 07:18:47;;;;;;;5.93;2.63;;;3.90;99.90;;;;;;5097711;28;20184;-79
2022/10/09 07:21:13;;;;;;;5.13;2.63;;;4.00;99.90;;;;;;5096425;28;20182;-78
2022/10/09 07:23:39;;;;;;;6.83;2.90;;;4.00;99.90;;;;;;5095078;28;20182;-78
2022/10/09 07:26:10;;;;;;;4.37;2.40;;;4.00;99.90;;;;;;5095306;28;20549;-78
2022/10/09 07:28:36;;;;;;;3.83;2.60;;;4.10;99.90;;;;;;5095306;28;20253;-78
2022/10/09 07:31:03;;;;;;;8.17;2.60;;;4.20;99.90;;;;;;5093942;28;20198;-79
2022/10/09 07:33:29;;;;;;;6.53;2.03;;;4.20;99.90;;;;;;5094650;28;20186;-78
2022/10/09 07:35:56;;;;;;;5.70;2.63;;;4.30;99.90;;;;;;5094950;28;20244;-78
2022/10/09 07:38:23;;;;;;;3.57;2.27;;;4.40;99.90;;;;;;5094809;28;20740;-78
2022/10/09 07:40:49;;;;;;;3.27;2.40;;;4.40;99.90;;;;;;5094056;28;20170;-78
2022/10/09 07:43:15;;;;;;;3.13;2.33;;;4.50;99.90;;;;;;5093231;28;20186;-79
2022/10/09 07:45:40;;;;;;;7.33;2.67;;;4.50;99.90;;;;;;5094312;28;20166;-78
2022/10/09 07:48:06;;;;;;;6.27;2.57;;;4.60;99.90;;;;;;5093189;28;20194;-78
2022/10/09 07:50:31;;;;;;;4.33;2.40;;;4.70;99.90;;;;;;5093535;28;20525;-78
2022/10/09 07:52:57;;;;;;;4.90;2.83;;;4.80;99.90;;;;;;5093704;28;20197;-79
2022/10/09 07:55:22;;;;;;;4.60;2.77;;;4.90;99.90;;;;;;5092353;28;20198;-78
2022/10/09 07:57:49;;;;;;;6.53;2.77;;;5.00;99.90;;;;;;5094750;28;20216;-78
2022/10/09 08:00:14;;;;;;;6.43;3.10;;;5.10;99.90;;;;;;5094785;28;20220;-78
2022/10/09 08:02:40;;;;;;;6.37;3.20;;;5.30;99.90;;;;;;5093006;28;20582;-80
2022/10/09 08:05:05;;;;;;;5.33;2.90;;;5.50;99.90;;;;;;5093170;28;20193;-78
2022/10/09 08:07:31;;;;;;;6.50;3.17;;;5.60;99.90;;;;;;5094886;28;20225;-78
2022/10/09 08:09:56;;;;;;;6.67;2.93;;;5.80;99.90;;;;;;5093605;28;20208;-78
2022/10/09 08:12:22;;;;;;;9.63;4.23;;;6.00;99.90;;;;;;5095290;28;20183;-78
2022/10/09 08:14:47;;;;;;;11.67;4.00;;;6.20;99.90;;;;;;5092790;28;20190;-78
2022/10/09 08:17:14;;;;;;;8.27;4.83;;;6.30;99.90;;;;;;5094772;28;20583;-79
2022/10/09 08:19:39;;;;;;;10.60;3.93;;;6.50;99.90;;;;;;5094784;28;20177;-78
2022/10/09 08:22:05;;;;;;;10.23;4.93;;;6.60;99.90;;;;;;5095354;28;20190;-78
2022/10/09 08:24:30;;;;;;;8.50;4.07;;;6.80;99.90;;;;;;5095788;28;20177;-79
2022/10/09 08:26:56;;;;;;;13.70;5.33;;;6.90;99.90;;;;;;5100986;28;20198;-79
2022/10/09 08:29:21;;;;;;;13.87;5.87;;;7.10;99.90;;;;;;5108911;28;20197;-79
2022/10/09 08:31:47;;;;;;;7.93;4.77;;;7.20;99.90;;;;;;5108446;28;20177;-79
2022/10/09 08:34:12;;;;;;;16.10;5.93;;;7.30;99.90;;;;;;5108980;28;20181;-79
2022/10/09 08:36:38;;;;;;;8.57;5.60;;;7.50;99.90;;;;;;5097766;28;20218;-79
2022/10/09 08:39:03;;;;;;;11.50;5.73;;;7.70;99.90;;;;;;5095384;28;20177;-79
2022/10/09 08:41:32;;;;;;;15.27;5.20;;;7.80;99.90;;;;;;5094336;28;20178;-79
2022/10/09 08:44:08;;;;;;;9.20;5.03;;;7.90;99.90;;;;;;5094113;28;20617;-79
2022/10/09 08:46:48;;;;;;;17.10;5.43;;;8.00;99.90;;;;;;5094517;28;20564;-79
2022/10/09 08:49:42;;;;;;;15.70;4.80;;;8.20;99.90;;;;;;5096546;28;20228;-79
2022/10/09 08:52:16;;;;;;;10.40;4.43;;;8.30;99.90;;;;;;5095169;28;20181;-79
2022/10/09 08:54:42;;;;;;;15.50;5.13;;;8.50;99.90;;;;;;5096869;28;20185;-79
2022/10/09 08:57:16;;;;;;;8.83;4.37;;;8.60;99.90;;;;;;5098486;28;20213;-79
2022/10/09 08:59:43;;;;;;;12.17;5.73;;;8.80;99.90;;;;;;5102212;28;20170;-79
2022/10/09 09:02:30;;;;;;;10.13;4.77;;;8.90;99.90;;;;;;5101346;28;20216;-79
2022/10/09 09:05:17;;;;;;;13.33;3.70;;;9.10;99.90;;;;;;5102067;28;20167;-79
2022/10/09 09:07:45;;;;;;;11.60;3.27;;;9.20;99.90;;;;;;5102852;28;20194;-79
2022/10/09 09:10:23;;;;;;;9.47;3.13;;;9.30;99.90;;;;;;5101508;28;20185;-79
2022/10/09 09:13:06;;;;;;;9.23;3.03;;;9.50;99.90;;;;;;5101610;28;20241;-79
2022/10/09 09:15:55;;;;;;;4.67;2.63;;;9.60;99.90;;;;;;5102775;28;20171;-79
2022/10/09 09:18:28;;;;;;;4.87;2.10;;;9.80;99.90;;;;;;5103667;28;20202;-79
2022/10/09 09:20:57;;;;;;;10.03;2.33;;;10.00;99.90;;;;;;5103809;28;20162;-79
2022/10/09 09:23:30;;;;;;;8.50;2.10;;;10.20;99.90;;;;;;5103202;28;20178;-80
2022/10/09 09:25:58;;;;;;;9.00;1.70;;;10.30;99.90;;;;;;5103873;28;20253;-80
2022/10/09 09:28:30;;;;;;;9.10;1.80;;;10.50;99.90;;;;;;5103812;28;20190;-80
2022/10/09 09:31:16;;;;;;;3.67;1.67;;;10.60;99.90;;;;;;5103095;28;20171;-80
2022/10/09 09:34:04;;;;;;;6.20;1.80;;;10.70;99.90;;;;;;5103971;28;20162;-79
2022/10/09 09:36:37;;;;;;;10.57;2.00;;;10.70;99.90;;;;;;5105571;28;20213;-80
2022/10/09 09:39:03;;;;;;;6.43;1.90;;;11.00;99.90;;;;;;5105193;28;20190;-79
2022/10/09 09:41:28;;;;;;;3.23;1.20;;;11.10;99.90;;;;;;5104354;28;20174;-80
2022/10/09 09:43:54;;;;;;;8.30;1.70;;;11.20;99.90;;;;;;5105184;28;20505;-80
2022/10/09 09:46:24;;;;;;;5.60;1.40;;;11.30;99.90;;;;;;5104281;28;20181;-80
2022/10/09 09:48:50;;;;;;;4.17;1.20;;;11.40;99.90;;;;;;5105984;28;20562;-80
2022/10/09 09:51:19;;;;;;;2.70;1.40;;;11.50;99.90;;;;;;5104398;28;20181;-79
2022/10/09 09:53:48;;;;;;;10.93;1.93;;;11.50;99.90;;;;;;5099578;28;20170;-79
2022/10/09 09:56:15;;;;;;;3.00;1.30;;;11.80;99.90;;;;;;5100193;28;20194;-79
2022/10/09 10:05:26;;;;;;;3.67;1.50;;;12.20;99.90;;;;;;5098598;28;20234;-79
2022/10/09 10:07:52;;;;;;;3.93;1.83;;;12.30;99.90;;;;;;5098135;28;20675;-79
2022/10/09 10:13:48;;;;;;;4.13;1.33;;;12.50;99.90;;;;;;5098642;28;20150;-80
2022/10/09 10:16:22;;;;;;;4.40;1.47;;;12.60;99.90;;;;;;5099949;28;20238;-80
2022/10/09 10:18:48;;;;;;;3.30;1.50;;;12.70;1.00;;;;;;5100200;28;20195;-78
2022/10/09 10:21:16;;;;;;;5.40;1.53;;;12.80;99.90;;;;;;5099032;28;20167;-80
2022/10/09 10:23:49;;;;;;;4.77;1.50;;;12.90;99.90;;;;;;5097255;28;20166;-79
2022/10/09 10:26:33;;;;;;;1.70;0.93;;;13.00;64.20;;;;;;5097939;28;20155;-79
2022/10/09 10:29:25;;;;;;;6.63;1.47;;;13.10;1.00;;;;;;5095778;28;20162;-79
2022/10/09 10:32:28;;;;;;;3.07;1.40;;;13.10;99.90;;;;;;5091426;28;20202;-79
2022/10/09 10:35:19;;;;;;;2.30;1.17;;;13.30;99.90;;;;;;5086474;28;20178;-78
2022/10/09 10:37:53;;;;;;;6.80;1.40;;;13.30;99.90;;;;;;5092078;28;20300;-79
2022/10/09 10:40:25;;;;;;;2.17;1.30;;;13.50;1.00;;;;;;5074456;28;20147;-78
2022/10/09 10:43:06;;;;;;;4.63;1.43;;;13.60;1.00;;;;;;5073346;28;20258;-78
2022/10/09 10:46:25;;;;;;;8.50;1.40;;;13.60;99.90;;;;;;5074749;28;20163;-78
2022/10/09 10:48:51;;;;;;;2.60;1.17;;;13.70;99.90;;;;;;4993192;28;20177;-79
2022/10/09 10:51:50;;;;;;;3.73;1.20;;;13.80;1.00;;;;;;5065600;28;20269;-78
2022/10/09 10:54:34;;;;;;;2.00;1.10;;;13.90;99.90;;;;;;5093662;28;20178;-77
2022/10/09 10:57:19;;;;;;;4.67;1.00;;;13.90;1.00;;;;;;5110119;28;20309;-77
2022/10/09 10:59:57;;;;;;;2.43;1.07;;;14.00;1.00;;;;;;5093931;28;20235;-79
2022/10/09 11:02:41;;;;;;;1.73;1.17;;;14.10;99.90;;;;;;5097134;28;20165;-78
2022/10/09 11:05:25;;;;;;;3.07;1.47;;;14.20;1.00;;;;;;5094847;28;20201;-78
2022/10/09 11:07:57;;;;;;;5.37;1.50;;;14.30;1.00;;;;;;5094765;28;20205;-79
2022/10/09 11:10:44;;;;;;;2.90;1.00;;;14.40;99.90;;;;;;5094531;28;20177;-78
2022/10/09 11:13:28;;;;;;;1.70;1.20;;;14.50;1.00;;;;;;5094338;28;20543;-79
2022/10/09 11:16:31;;;;;;;3.47;1.23;;;14.50;1.00;;;;;;5094272;28;20163;-79
2022/10/09 11:19:08;;;;;;;4.93;1.10;;;14.50;1.00;;;;;;5095787;28;20166;-79
2022/10/09 11:21:52;;;;;;;3.07;1.30;;;14.60;1.00;;;;;;5095910;28;20158;-79
2022/10/09 11:24:57;;;;;;;5.17;1.23;;;14.70;1.00;;;;;;5091060;28;20165;-79
2022/10/09 11:27:38;;;;;;;4.20;1.07;;;14.80;99.90;;;;;;5076795;28;20194;-78
2022/10/09 11:30:09;;;;;;;4.30;1.10;;;14.80;99.90;;;;;;5086228;28;20182;-79
2022/10/09 11:32:43;;;;;;;3.40;1.20;;;14.90;99.90;;;;;;5095837;28;20170;-79
2022/10/09 11:35:17;;;;;;;4.50;0.80;;;14.90;99.90;;;;;;5094182;28;20189;-79
2022/10/09 11:37:50;;;;;;;4.27;1.13;;;14.90;99.90;;;;;;5103963;22;20253;-78
2022/10/09 11:40:21;;;;;;;2.13;1.00;;;15.00;59.00;;;;;;5057234;28;20617;-78
2022/10/09 11:42:57;;;;;;;5.17;1.07;;;15.00;1.00;;;;;;5058173;28;20175;-78
2022/10/09 11:45:35;;;;;;;2.60;1.03;;;15.00;1.00;;;;;;5057383;28;20367;-78
2022/10/09 11:48:25;;;;;;;4.00;1.20;;;15.10;1.00;;;;;;5057177;28;20203;-78
2022/10/09 11:51:00;;;;;;;5.00;1.27;;;15.20;1.00;;;;;;5051933;28;20190;-78
2022/10/09 11:53:29;;;;;;;5.40;1.27;;;15.20;1.00;;;;;;5057178;28;20171;-79
2022/10/09 11:56:03;;;;;;;3.50;1.20;;;15.30;99.90;;;;;;5056987;28;20254;-78
2022/10/09 11:58:28;;;;;;;3.83;1.00;;;15.30;99.90;;;;;;5057096;28;20198;-79
2022/10/09 12:00:56;;;;;;;3.83;1.37;;;15.30;99.90;;;;;;5061426;28;20240;-80
2022/10/09 12:03:32;;;;;;;4.53;0.93;;;15.40;63.70;;;;;;5057215;28;20171;-80
2022/10/09 12:06:02;;;;;;;3.10;1.00;;;15.50;1.00;;;;;;5056934;28;20175;-80
2022/10/09 12:08:28;;;;;;;3.70;1.30;;;15.50;1.00;;;;;;5057460;28;20195;-80
2022/10/09 12:11:06;;;;;;;3.30;1.10;;;15.60;1.00;;;;;;5059024;28;20180;-81
2022/10/09 12:13:46;;;;;;;1.63;0.93;;;15.70;1.00;;;;;;5058699;28;20163;-80
2022/10/09 12:16:33;;;;;;;5.43;1.20;;;15.80;1.00;;;;;;5055229;28;20199;-80
2022/10/09 12:19:01;;;;;;;6.63;1.10;;;15.90;1.00;;;;;;5057391;28;20193;-80
2022/10/09 12:21:55;;;;;;;4.53;1.27;;;16.00;1.00;;;;;;5055316;28;20207;-78
2022/10/09 12:24:41;;;;;;;5.47;1.23;;;16.00;1.00;;;;;;5040696;28;20317;-79
2022/10/09 12:27:08;;;;;;;2.70;1.07;;;16.00;99.90;;;;;;5056880;28;20160;-79
2022/10/09 12:29:43;;;;;;;2.27;1.07;;;16.00;99.90;;;;;;5058041;28;20180;-81
2022/10/09 12:32:21;;;;;;;5.57;1.10;;;16.10;99.90;;;;;;5044031;28;20187;-79
2022/10/09 12:34:49;;;;;;;2.40;1.00;;;16.10;99.90;;;;;;5061138;28;20189;-79
2022/10/09 12:37:15;;;;;;;1.10;0.77;;;16.20;99.90;;;;;;5060618;28;20263;-79
2022/10/09 12:39:41;;;;;;;2.30;0.93;;;16.20;99.90;;;;;;5057784;28;20171;-79
2022/10/09 12:42:22;;;;;;;6.30;1.03;;;16.20;99.90;;;;;;5060879;28;20172;-79
2022/10/09 12:44:51;;;;;;;2.23;0.60;;;16.30;99.90;;;;;;5058892;28;20164;-79
2022/10/09 12:47:24;;;;;;;2.23;1.10;;;16.20;99.90;;;;;;5059584;28;20195;-79
2022/10/09 12:49:55;;;;;;;4.13;1.00;;;16.30;1.00;;;;;;5058283;28;20596;-78
2022/10/09 12:52:20;;;;;;;1.50;0.80;;;16.30;1.00;;;;;;5058837;28;20172;-78
2022/10/09 12:54:46;;;;;;;5.00;1.10;;;16.30;1.00;;;;;;5057773;28;20187;-79
2022/10/09 12:57:14;;;;;;;1.83;0.70;;;16.30;1.00;;;;;;5056742;28;20207;-79
2022/10/09 12:59:41;;;;;;;1.30;0.80;;;16.40;1.00;;;;;;5057591;28;20542;-79
2022/10/09 13:02:10;;;;;;;4.80;1.00;;;16.30;1.00;;;;;;5058314;28;20261;-79
2022/10/09 13:04:36;;;;;;;1.93;0.70;;;16.40;1.00;;;;;;5058304;28;20167;-78
2022/10/09 13:07:13;;;;;;;4.30;0.77;;;16.40;1.00;;;;;;5056554;28;20627;-79
2022/10/09 13:09:39;;;;;;;3.20;1.00;;;16.40;1.00;;;;;;5057687;28;20179;-78
2022/10/09 13:12:10;;;;;;;1.40;0.90;;;16.50;1.00;;;;;;5058051;28;20167;-79
2022/10/09 13:14:43;;;;;;;1.93;0.87;;;16.50;1.00;;;;;;5058025;28;20542;-78
2022/10/09 13:17:28;;;;;;;1.33;0.87;;;16.60;1.00;;;;;;5056379;28;20199;-79
2022/10/09 13:19:56;;;;;;;2.47;0.87;;;16.60;1.00;;;;;;5057523;28;20176;-79
2022/10/09 13:22:23;;;;;;;3.00;0.87;;;16.60;1.00;;;;;;5057719;28;20163;-79
2022/10/09 13:24:52;;;;;;;2.50;0.70;;;16.70;1.00;;;;;;5057891;28;20649;-79